Dades meteomassalio
Diari Summary for Marc 19, 2017 Units:  Metric    English   Both
« Previous Day
Next Day »
Diari Semanal Mensual Anual Personalitzat
  Maxima: Minima: Mijana:
Temperatura: 22.1 °C 4.7 °C 13.2 °C
Rosada: 7.6 °C 2.1 °C 4.9 °C
Humitat: 84 % 35 % 61 %
Velocitat del vent: 27.8 km/h 0.0 km/h 4.8 km/h
Racha vent: 27.8 km/h - -
Vent:- - West
Pressio: 1021.2 hPa 1014.1 hPa -
Pluja: 0.0 mm    
Historical Graphs
 
 
Tabular Data for Marc 19, 2017
Time Temperature Dew Point Pressure Wind Wind Speed Wind Gust Humidity Rainfall Rate (Hourly) solar Conditions
00:03 9.3 °C 5.3 °C 1021.2 hPa Calm     76 % 0.0 mm 0.0 W/m2 CLR
00:08 9.2 °C 5.2 °C 1021.2 hPa Calm     76 % 0.0 mm 0.0 W/m2 CLR
00:13 8.9 °C 5.1 °C 1021.2 hPa Calm     77 % 0.0 mm 0.0 W/m2 CLR
00:18 8.7 °C 5.1 °C 1021.2 hPa Calm     78 % 0.0 mm 0.0 W/m2 CLR
00:23 8.5 °C 4.9 °C 1021.2 hPa Calm     78 % 0.0 mm 0.0 W/m2 CLR
00:28 8.3 °C 4.9 °C 1021.2 hPa Calm     79 % 0.0 mm 0.0 W/m2 CLR
00:33 8.2 °C 4.8 °C 1021.2 hPa Calm     79 % 0.0 mm 0.0 W/m2 CLR
00:38 8.1 °C 4.7 °C 1021.2 hPa Calm     79 % 0.0 mm 0.0 W/m2 CLR
00:43 8.0 °C 4.6 °C 1021.2 hPa Calm     79 % 0.0 mm 0.0 W/m2 CLR
00:48 7.9 °C 4.7 °C 1021.2 hPa Calm     80 % 0.0 mm 0.0 W/m2 CLR
00:54 7.9 °C 4.4 °C 1021.2 hPa Calm     79 % 0.0 mm 0.0 W/m2 CLR
00:59 7.7 °C 4.3 °C 1021.2 hPa Calm     79 % 0.0 mm 0.0 W/m2 CLR
01:04 7.6 °C 4.3 °C 1021.2 hPa Calm     80 % 0.0 mm 0.0 W/m2 CLR
01:09 7.4 °C 4.2 °C 1021.2 hPa Calm     80 % 0.0 mm 0.0 W/m2 CLR
01:13 7.4 °C 4.3 °C 1021.2 hPa Calm     81 % 0.0 mm 0.0 W/m2 CLR
01:19 7.3 °C 4.2 °C 1021.2 hPa Calm     81 % 0.0 mm 0.0 W/m2 CLR
01:24 7.1 °C 4.1 °C 1021.2 hPa Calm     81 % 0.0 mm 0.0 W/m2 CLR
01:29 7.1 °C 4.0 °C 1021.2 hPa Calm     81 % 0.0 mm 0.0 W/m2 CLR
01:34 7.0 °C 3.9 °C 1021.2 hPa Calm     81 % 0.0 mm 0.0 W/m2 CLR
01:39 6.9 °C 3.8 °C 1021.2 hPa Calm     81 % 0.0 mm 0.0 W/m2 CLR
01:44 6.8 °C 4.0 °C 1021.2 hPa Calm     82 % 0.0 mm 0.0 W/m2 CLR
01:49 6.9 °C 3.8 °C 1021.2 hPa Calm     81 % 0.0 mm 0.0 W/m2 CLR
01:54 6.8 °C 3.8 °C 1020.9 hPa Calm     81 % 0.0 mm 0.0 W/m2 CLR
01:59 6.7 °C 3.7 °C 1020.9 hPa Calm     81 % 0.0 mm 0.0 W/m2 CLR
02:04 6.6 °C 3.6 °C 1020.9 hPa Calm     81 % 0.0 mm 0.0 W/m2 CLR
02:09 6.5 °C 3.5 °C 1020.9 hPa Calm     81 % 0.0 mm 0.0 W/m2 CLR
02:14 6.4 °C 3.6 °C 1020.9 hPa Calm     82 % 0.0 mm 0.0 W/m2 CLR
02:19 6.4 °C 3.6 °C 1020.9 hPa Calm     82 % 0.0 mm 0.0 W/m2 CLR
02:24 6.4 °C 3.6 °C 1020.9 hPa Calm     82 % 0.0 mm 0.0 W/m2 CLR
02:29 6.3 °C 3.5 °C 1020.5 hPa Calm     82 % 0.0 mm 0.0 W/m2 CLR
02:34 6.3 °C 3.4 °C 1020.5 hPa Calm     82 % 0.0 mm 0.0 W/m2 CLR
02:39 6.3 °C 3.4 °C 1020.5 hPa Calm     82 % 0.0 mm 0.0 W/m2 CLR
02:44 6.3 °C 3.4 °C 1020.5 hPa Calm     82 % 0.0 mm 0.0 W/m2 CLR
02:49 6.3 °C 3.4 °C 1020.5 hPa Calm     82 % 0.0 mm 0.0 W/m2 CLR
02:54 6.2 °C 3.4 °C 1020.5 hPa Calm     82 % 0.0 mm 0.0 W/m2 CLR
02:59 6.2 °C 3.4 °C 1020.5 hPa Calm     82 % 0.0 mm 0.0 W/m2 CLR
03:04 6.2 °C 3.3 °C 1020.5 hPa Calm     82 % 0.0 mm 0.0 W/m2 CLR
03:09 6.2 °C 3.3 °C 1020.2 hPa Calm     82 % 0.0 mm 0.0 W/m2 CLR
03:14 6.3 °C 3.4 °C 1020.2 hPa Calm     82 % 0.0 mm 0.0 W/m2 CLR
03:19 6.4 °C 3.4 °C 1020.2 hPa Calm     81 % 0.0 mm 0.0 W/m2 CLR
03:24 6.4 °C 3.2 °C 1020.5 hPa Calm     80 % 0.0 mm 0.0 W/m2 CLR
03:29 6.3 °C 3.3 °C 1020.5 hPa Calm     81 % 0.0 mm 0.0 W/m2 CLR
03:34 6.2 °C 3.2 °C 1020.2 hPa Calm     81 % 0.0 mm 0.0 W/m2 CLR
03:39 6.2 °C 3.2 °C 1020.2 hPa Calm     81 % 0.0 mm 0.0 W/m2 CLR
03:44 6.2 °C 3.2 °C 1020.2 hPa Calm     81 % 0.0 mm 0.0 W/m2 CLR
03:49 6.2 °C 3.2 °C 1020.2 hPa Calm     81 % 0.0 mm 0.0 W/m2 CLR
03:54 6.3 °C 3.3 °C 1020.2 hPa Calm     81 % 0.0 mm 0.0 W/m2 CLR
03:59 6.3 °C 3.1 °C 1020.2 hPa Calm     80 % 0.0 mm 0.0 W/m2 CLR
04:04 6.2 °C 3.2 °C 1020.2 hPa Calm     81 % 0.0 mm 0.0 W/m2 CLR
04:09 6.3 °C 3.1 °C 1019.9 hPa Calm     80 % 0.0 mm 0.0 W/m2 CLR
04:14 6.3 °C 3.1 °C 1019.9 hPa Calm     80 % 0.0 mm 0.0 W/m2 CLR
04:19 6.2 °C 3.0 °C 1019.9 hPa Calm     80 % 0.0 mm 0.0 W/m2 CLR
04:24 6.3 °C 3.1 °C 1019.9 hPa WSW 7.4 km/h 7.4 km/h 80 % 0.0 mm 0.0 W/m2 CLR
04:29 6.7 °C 3.5 °C 1019.9 hPa SW 11.1 km/h 11.1 km/h 80 % 0.0 mm 0.0 W/m2 CLR
04:34 7.7 °C 3.6 °C 1019.9 hPa WSW 13.0 km/h 13.0 km/h 75 % 0.0 mm 0.0 W/m2 CLR
04:39 8.3 °C 3.5 °C 1019.9 hPa WSW 9.3 km/h 9.3 km/h 72 % 0.0 mm 0.0 W/m2 CLR
04:44 8.6 °C 3.2 °C 1019.9 hPa WSW 7.4 km/h 7.4 km/h 69 % 0.0 mm 0.0 W/m2 CLR
04:49 8.7 °C 3.2 °C 1019.9 hPa SW 7.4 km/h 7.4 km/h 68 % 0.0 mm 0.0 W/m2 CLR
04:54 9.0 °C 3.2 °C 1019.9 hPa WSW 7.4 km/h 7.4 km/h 67 % 0.0 mm 0.0 W/m2 CLR
04:59 9.3 °C 3.1 °C 1019.9 hPa WSW 9.7 km/h 9.7 km/h 65 % 0.0 mm 0.0 W/m2 CLR
05:04 9.8 °C 3.1 °C 1019.9 hPa SW 6.4 km/h 6.4 km/h 63 % 0.0 mm 0.0 W/m2 CLR
05:09 9.8 °C 3.1 °C 1019.9 hPa WSW 5.6 km/h 5.6 km/h 63 % 0.0 mm 0.0 W/m2 CLR
05:14 9.5 °C 3.0 °C 1020.2 hPa WSW 5.6 km/h 5.6 km/h 64 % 0.0 mm 0.0 W/m2 CLR
05:19 9.1 °C 2.9 °C 1019.9 hPa Calm     65 % 0.0 mm 0.0 W/m2 CLR
05:24 8.4 °C 2.6 °C 1019.9 hPa Calm     67 % 0.0 mm 0.0 W/m2 CLR
05:29 7.9 °C 2.8 °C 1019.9 hPa Calm     70 % 0.0 mm 0.0 W/m2 CLR
05:34 7.4 °C 2.7 °C 1019.9 hPa Calm     72 % 0.0 mm 0.0 W/m2 CLR
05:39 7.2 °C 2.7 °C 1019.9 hPa Calm     73 % 0.0 mm 0.0 W/m2 CLR
05:44 6.9 °C 2.6 °C 1019.9 hPa Calm     74 % 0.0 mm 0.0 W/m2 CLR
05:49 6.6 °C 2.5 °C 1019.9 hPa Calm     75 % 0.0 mm 0.0 W/m2 CLR
05:54 6.6 °C 2.6 °C 1019.9 hPa SW 1.9 km/h   76 % 0.0 mm 0.0 W/m2 CLR
05:59 6.6 °C 2.6 °C 1019.9 hPa SW 5.6 km/h 5.6 km/h 76 % 0.0 mm 0.0 W/m2 CLR
06:04 6.7 °C 2.7 °C 1019.9 hPa Calm     76 % 0.0 mm 0.0 W/m2 CLR
06:09 6.6 °C 2.6 °C 1019.9 hPa Calm     76 % 0.0 mm 0.0 W/m2 CLR
06:14 6.3 °C 2.6 °C 1019.9 hPa Calm     77 % 0.0 mm 0.0 W/m2 CLR
06:19 6.0 °C 2.4 °C 1020.2 hPa Calm     78 % 0.0 mm 0.0 W/m2 CLR
06:24 5.8 °C 2.4 °C 1020.2 hPa Calm     79 % 0.0 mm 0.0 W/m2 CLR
06:29 5.7 °C 2.3 °C 1020.2 hPa Calm   1.4 km/h 79 % 0.0 mm 0.0 W/m2 CLR
06:34 5.6 °C 2.4 °C 1020.2 hPa Calm     80 % 0.0 mm 0.0 W/m2 CLR
06:39 5.5 °C 2.3 °C 1020.2 hPa Calm     80 % 0.0 mm 0.0 W/m2 CLR
06:44 5.3 °C 2.3 °C 1020.2 hPa Calm     81 % 0.0 mm 0.0 W/m2 CLR
06:49 5.1 °C 2.1 °C 1020.2 hPa Calm     81 % 0.0 mm 0.0 W/m2 CLR
06:54 5.0 °C 2.2 °C 1020.5 hPa Calm   0.2 km/h 82 % 0.0 mm 0.0 W/m2 CLR
06:59 5.0 °C 2.2 °C 1020.5 hPa Calm     82 % 0.0 mm 0.0 W/m2 CLR
07:04 5.0 °C 2.2 °C 1020.5 hPa Calm     82 % 0.0 mm 0.0 W/m2 OVC
07:09 4.9 °C 2.1 °C 1020.5 hPa Calm     82 % 0.0 mm 7.0 W/m2 BKN
07:14 4.8 °C 2.1 °C 1020.5 hPa Calm     83 % 0.0 mm 9.0 W/m2 BKN
07:19 4.7 °C 2.1 °C 1020.5 hPa WSW 4.8 km/h 4.8 km/h 83 % 0.0 mm 11.0 W/m2 BKN
07:25 4.8 °C 2.1 °C 1020.5 hPa SW 5.6 km/h 5.6 km/h 83 % 0.0 mm 14.0 W/m2 BKN
07:30 4.9 °C 2.2 °C 1020.5 hPa Calm     83 % 0.0 mm 16.0 W/m2 BKN
07:35 4.9 °C 2.2 °C 1020.5 hPa Calm     83 % 0.0 mm 18.0 W/m2 BKN
07:40 5.0 °C 2.3 °C 1020.5 hPa Calm     83 % 0.0 mm 32.0 W/m2 BKN
07:45 5.2 °C 2.7 °C 1020.5 hPa Calm     84 % 0.0 mm 39.0 W/m2 BKN
07:50 5.3 °C 2.7 °C 1020.5 hPa Calm     83 % 0.0 mm 49.0 W/m2 SCT
07:55 5.4 °C 2.7 °C 1020.5 hPa Calm     83 % 0.0 mm 51.0 W/m2 SCT
08:00 5.7 °C 3.0 °C 1020.5 hPa Calm     83 % 0.0 mm 83.0 W/m2 FEW
08:05 6.0 °C 3.2 °C 1020.5 hPa Calm     82 % 0.0 mm 84.0 W/m2 FEW
08:10 6.4 °C 3.4 °C 1020.5 hPa Calm     81 % 0.0 mm 121.0 W/m2 CLR
08:12 6.6 °C 3.5 °C 1020.5 hPa Calm     81 % 0.0 mm 90.0 W/m2 CLR
08:17 6.9 °C 3.5 °C 1020.5 hPa Calm     79 % 0.0 mm 118.0 W/m2 CLR
08:22 7.2 °C 3.4 °C 1020.5 hPa Calm     77 % 0.0 mm 163.0 W/m2 CLR
08:27 7.6 °C 3.8 °C 1020.5 hPa Calm     77 % 0.0 mm 183.0 W/m2 CLR
08:32 7.9 °C 4.1 °C 1020.5 hPa Calm     77 % 0.0 mm 204.0 W/m2 CLR
08:37 8.4 °C 4.3 °C 1020.5 hPa Calm     75 % 0.0 mm 227.0 W/m2 CLR
08:42 8.8 °C 4.4 °C 1020.5 hPa Calm     74 % 0.0 mm 243.0 W/m2 CLR
08:47 9.3 °C 4.7 °C 1020.2 hPa Calm     73 % 0.0 mm 258.0 W/m2 CLR
08:52 9.7 °C 4.7 °C 1020.2 hPa Calm     71 % 0.0 mm 255.0 W/m2 CLR
08:57 10.1 °C 4.7 °C 1020.2 hPa Calm     69 % 0.0 mm 290.0 W/m2 CLR
09:02 10.3 °C 4.8 °C 1020.2 hPa Calm     69 % 0.0 mm 304.0 W/m2 CLR
09:07 10.8 °C 5.3 °C 1020.5 hPa Calm     69 % 0.0 mm 322.0 W/m2 CLR
09:12 11.3 °C 5.2 °C 1020.2 hPa Calm     66 % 0.0 mm 329.0 W/m2 CLR
09:17 11.7 °C 5.1 °C 1020.2 hPa Calm     64 % 0.0 mm 355.0 W/m2 CLR
09:22 12.1 °C 5.2 °C 1020.2 hPa Calm     63 % 0.0 mm 369.0 W/m2 CLR
09:27 12.4 °C 5.3 °C 1020.2 hPa Calm     62 % 0.0 mm 383.0 W/m2 CLR
09:32 12.7 °C 5.6 °C 1020.2 hPa Calm     62 % 0.0 mm 399.0 W/m2 CLR
09:37 12.8 °C 5.7 °C 1019.9 hPa Calm     62 % 0.0 mm 417.0 W/m2 CLR
09:42 13.3 °C 6.2 °C 1019.9 hPa Calm     62 % 0.0 mm 431.0 W/m2 CLR
09:47 14.0 °C 4.8 °C 1019.9 hPa NNW 18.5 km/h 18.5 km/h 54 % 0.0 mm 445.0 W/m2 CLR
09:52 14.8 °C 3.6 °C 1019.9 hPa NW 18.5 km/h 18.5 km/h 47 % 0.0 mm 457.0 W/m2 CLR
09:57 15.3 °C 3.4 °C 1019.9 hPa WNW 14.5 km/h 14.5 km/h 45 % 0.0 mm 473.0 W/m2 CLR
10:02 15.6 °C 4.0 °C 1019.9 hPa NW 13.0 km/h 13.0 km/h 46 % 0.0 mm 485.0 W/m2 CLR
10:07 15.8 °C 3.9 °C 1019.5 hPa NW 9.7 km/h 9.7 km/h 45 % 0.0 mm 499.0 W/m2 CLR
10:12 16.0 °C 3.4 °C 1019.5 hPa NNW 13.0 km/h 13.0 km/h 43 % 0.0 mm 512.0 W/m2 CLR
10:17 16.2 °C 2.9 °C 1019.5 hPa WSW 18.5 km/h 18.5 km/h 41 % 0.0 mm 524.0 W/m2 CLR
10:22 16.4 °C 3.5 °C 1019.5 hPa WSW 13.0 km/h 13.0 km/h 42 % 0.0 mm 540.0 W/m2 CLR
10:27 16.6 °C 3.6 °C 1019.5 hPa NNW 20.9 km/h 20.9 km/h 42 % 0.0 mm 550.0 W/m2 CLR
10:32 16.6 °C 3.3 °C 1019.5 hPa NW 7.4 km/h 7.4 km/h 41 % 0.0 mm 563.0 W/m2 CLR
10:37 16.7 °C 3.3 °C 1019.5 hPa NW 27.8 km/h 27.8 km/h 41 % 0.0 mm 573.0 W/m2 CLR
10:42 16.6 °C 2.9 °C 1019.2 hPa WNW 18.5 km/h 18.5 km/h 40 % 0.0 mm 587.0 W/m2 CLR
10:47 16.8 °C 3.4 °C 1019.2 hPa NW 19.3 km/h 19.3 km/h 41 % 0.0 mm 596.0 W/m2 CLR
10:52 16.9 °C 3.6 °C 1019.2 hPa WNW 16.1 km/h 16.1 km/h 41 % 0.0 mm 606.0 W/m2 CLR
10:57 16.9 °C 2.9 °C 1019.2 hPa WNW 18.5 km/h 18.5 km/h 39 % 0.0 mm 617.0 W/m2 CLR
11:02 17.1 °C 3.7 °C 1019.2 hPa West 17.7 km/h 17.7 km/h 41 % 0.0 mm 626.0 W/m2 CLR
11:07 17.1 °C 3.4 °C 1019.2 hPa WNW 24.1 km/h 24.1 km/h 40 % 0.0 mm 638.0 W/m2 CLR
11:12 17.1 °C 4.4 °C 1019.2 hPa WNW 13.0 km/h 13.0 km/h 43 % 0.0 mm 649.0 W/m2 CLR
11:17 17.2 °C 4.5 °C 1019.2 hPa WNW 7.4 km/h 7.4 km/h 43 % 0.0 mm 654.0 W/m2 CLR
11:22 17.4 °C 4.0 °C 1019.2 hPa NNW 18.5 km/h 18.5 km/h 41 % 0.0 mm 663.0 W/m2 CLR
11:27 17.5 °C 4.1 °C 1018.8 hPa WNW 17.7 km/h 17.7 km/h 41 % 0.0 mm 675.0 W/m2 CLR
11:28 17.6 °C 3.8 °C 1018.8 hPa West 16.7 km/h 16.7 km/h 40 % 0.0 mm 675.0 W/m2 CLR
11:33 17.6 °C 3.8 °C 1018.8 hPa WNW 18.5 km/h 18.5 km/h 40 % 0.0 mm 684.0 W/m2 CLR
11:38 17.7 °C 4.3 °C 1018.8 hPa WNW 16.7 km/h 16.7 km/h 41 % 0.0 mm 689.0 W/m2 CLR
11:43 18.0 °C 4.9 °C 1018.8 hPa NNW 19.3 km/h 19.3 km/h 42 % 0.0 mm 694.0 W/m2 CLR
11:48 18.1 °C 4.2 °C 1018.8 hPa NNW 22.5 km/h 22.5 km/h 40 % 0.0 mm 703.0 W/m2 CLR
11:53 18.0 °C 4.6 °C 1018.8 hPa NW 14.5 km/h 14.5 km/h 41 % 0.0 mm 710.0 W/m2 CLR
11:58 18.0 °C 5.2 °C 1018.5 hPa NW 14.5 km/h 14.5 km/h 43 % 0.0 mm 717.0 W/m2 CLR
12:03 18.1 °C 4.3 °C 1018.5 hPa West 13.0 km/h 13.0 km/h 40 % 0.0 mm 722.0 W/m2 CLR
12:08 18.1 °C 5.0 °C 1018.5 hPa NNW 13.0 km/h 13.0 km/h 42 % 0.0 mm 728.0 W/m2 CLR
12:13 18.3 °C 4.4 °C 1018.2 hPa West 14.8 km/h 14.8 km/h 40 % 0.0 mm 731.0 W/m2 CLR
12:18 18.6 °C 5.4 °C 1018.2 hPa North 11.1 km/h 11.1 km/h 42 % 0.0 mm 738.0 W/m2 CLR
12:23 18.8 °C 4.9 °C 1018.2 hPa WNW 7.4 km/h 7.4 km/h 40 % 0.0 mm 742.0 W/m2 CLR
12:28 18.9 °C 5.1 °C 1018.2 hPa NNW 14.8 km/h 14.8 km/h 40 % 0.0 mm 744.0 W/m2 CLR
12:33 18.9 °C 5.0 °C 1018.2 hPa NW 9.7 km/h 9.7 km/h 40 % 0.0 mm 747.0 W/m2 CLR
12:38 19.1 °C 4.8 °C 1017.8 hPa Calm     39 % 0.0 mm 751.0 W/m2 CLR
12:43 19.3 °C 4.9 °C 1017.8 hPa NNW 14.8 km/h 14.8 km/h 39 % 0.0 mm 754.0 W/m2 CLR
12:48 19.2 °C 5.3 °C 1017.8 hPa WNW 13.0 km/h 13.0 km/h 40 % 0.0 mm 756.0 W/m2 CLR
12:53 19.3 °C 5.3 °C 1017.8 hPa WNW 14.8 km/h 14.8 km/h 40 % 0.0 mm 758.0 W/m2 CLR
12:58 19.5 °C 5.9 °C 1017.8 hPa NNW 13.0 km/h 13.0 km/h 41 % 0.0 mm 758.0 W/m2 CLR
13:03 19.7 °C 5.7 °C 1017.8 hPa NNW 14.8 km/h 14.8 km/h 40 % 0.0 mm 758.0 W/m2 CLR
13:08 19.7 °C 5.7 °C 1017.5 hPa WNW 13.0 km/h 13.0 km/h 40 % 0.0 mm 758.0 W/m2 CLR
13:13 19.7 °C 6.4 °C 1017.5 hPa NNW 14.8 km/h 14.8 km/h 42 % 0.0 mm 761.0 W/m2 CLR
13:18 19.7 °C 5.4 °C 1017.5 hPa NW 18.5 km/h 18.5 km/h 39 % 0.0 mm 765.0 W/m2 CLR
13:23 19.7 °C 5.7 °C 1017.2 hPa NNE 16.7 km/h 16.7 km/h 40 % 0.0 mm 770.0 W/m2 CLR
13:28 19.7 °C 5.4 °C 1017.2 hPa WNW 18.5 km/h 18.5 km/h 39 % 0.0 mm 772.0 W/m2 CLR
13:33 19.8 °C 5.4 °C 1017.2 hPa WNW 9.3 km/h 9.3 km/h 39 % 0.0 mm 752.0 W/m2 CLR
13:38 20.0 °C 5.6 °C 1017.2 hPa NW 16.7 km/h 16.7 km/h 39 % 0.0 mm 752.0 W/m2 CLR
13:43 20.1 °C 6.1 °C 1017.2 hPa NW 14.8 km/h 14.8 km/h 40 % 0.0 mm 763.0 W/m2 CLR
13:48 20.3 °C 6.6 °C 1016.8 hPa Calm     41 % 0.0 mm 749.0 W/m2 CLR
13:53 20.4 °C 5.9 °C 1016.8 hPa NNW 19.3 km/h 19.3 km/h 39 % 0.0 mm 707.0 W/m2 CLR
13:58 20.2 °C 5.8 °C 1016.8 hPa North 14.5 km/h 14.5 km/h 39 % 0.0 mm 735.0 W/m2 CLR
14:03 20.3 °C 5.9 °C 1016.8 hPa NNW 14.8 km/h 14.8 km/h 39 % 0.0 mm 712.0 W/m2 CLR
14:08 20.5 °C 6.1 °C 1016.8 hPa NE 13.0 km/h 13.0 km/h 39 % 0.0 mm 686.0 W/m2 CLR
14:13 20.5 °C 6.1 °C 1016.8 hPa North 16.7 km/h 16.7 km/h 39 % 0.0 mm 694.0 W/m2 CLR
14:18 20.3 °C 5.9 °C 1016.8 hPa NNE 11.1 km/h 11.1 km/h 39 % 0.0 mm 742.0 W/m2 CLR
14:23 20.5 °C 6.1 °C 1016.5 hPa NNW 11.1 km/h 11.1 km/h 39 % 0.0 mm 731.0 W/m2 CLR
14:28 20.4 °C 6.4 °C 1016.5 hPa WNW 5.6 km/h 5.6 km/h 40 % 0.0 mm 721.0 W/m2 CLR
14:33 20.5 °C 5.7 °C 1016.5 hPa NNW 11.1 km/h 11.1 km/h 38 % 0.0 mm 705.0 W/m2 CLR
14:38 20.5 °C 6.4 °C 1016.1 hPa North 13.0 km/h 13.0 km/h 40 % 0.0 mm 710.0 W/m2 CLR
14:43 20.7 °C 6.9 °C 1016.1 hPa NW 7.4 km/h 7.4 km/h 41 % 0.0 mm 703.0 W/m2 CLR
14:48 21.1 °C 7.0 °C 1016.1 hPa NW 14.8 km/h 14.8 km/h 40 % 0.0 mm 703.0 W/m2 CLR
14:53 21.2 °C 6.3 °C 1016.1 hPa WNW 5.6 km/h 5.6 km/h 38 % 0.0 mm 700.0 W/m2 CLR
14:58 21.4 °C 6.1 °C 1016.1 hPa NNW 9.3 km/h 9.3 km/h 37 % 0.0 mm 735.0 W/m2 CLR
15:03 21.3 °C 6.1 °C 1015.8 hPa NNW 8.0 km/h 8.0 km/h 37 % 0.0 mm 594.0 W/m2 CLR
15:08 21.4 °C 6.1 °C 1015.8 hPa WNW 14.8 km/h 14.8 km/h 37 % 0.0 mm 612.0 W/m2 CLR
15:13 21.4 °C 5.3 °C 1015.8 hPa WNW 9.3 km/h 9.3 km/h 35 % 0.0 mm 536.0 W/m2 CLR
15:18 21.6 °C 5.8 °C 1015.8 hPa Calm     36 % 0.0 mm 559.0 W/m2 CLR
15:23 21.8 °C 6.5 °C 1015.8 hPa WNW 14.8 km/h 14.8 km/h 37 % 0.0 mm 543.0 W/m2 CLR
15:28 21.8 °C 6.4 °C 1015.5 hPa NW 9.3 km/h 9.3 km/h 37 % 0.0 mm 575.0 W/m2 CLR
15:33 21.5 °C 6.6 °C 1015.5 hPa NNW 14.8 km/h 14.8 km/h 38 % 0.0 mm 564.0 W/m2 CLR
15:38 21.3 °C 5.7 °C 1015.5 hPa Calm     36 % 0.0 mm 561.0 W/m2 CLR
15:43 21.5 °C 6.2 °C 1015.5 hPa NNW 5.6 km/h   37 % 0.0 mm 512.0 W/m2 CLR
15:48 21.8 °C 6.1 °C 1015.5 hPa WNW 9.3 km/h 9.3 km/h 36 % 0.0 mm 563.0 W/m2 CLR
15:53 22.1 °C 6.3 °C 1015.5 hPa WNW 11.1 km/h 11.1 km/h 36 % 0.0 mm 587.0 W/m2 CLR
15:58 22.0 °C 6.6 °C 1015.1 hPa WNW 9.3 km/h   37 % 0.0 mm 439.0 W/m2 CLR
16:03 22.0 °C 6.6 °C 1015.1 hPa WNW 11.3 km/h 11.3 km/h 37 % 0.0 mm 570.0 W/m2 CLR
16:08 21.8 °C 6.5 °C 1015.1 hPa NNW 14.8 km/h 14.8 km/h 37 % 0.0 mm 519.0 W/m2 CLR
16:13 21.8 °C 6.1 °C 1015.1 hPa NE 11.1 km/h 11.1 km/h 36 % 0.0 mm 392.0 W/m2 CLR
16:18 21.9 °C 6.9 °C 1015.1 hPa NW 9.3 km/h 9.3 km/h 38 % 0.0 mm 350.0 W/m2 CLR
16:23 21.9 °C 6.6 °C 1015.1 hPa NNW 18.5 km/h 18.5 km/h 37 % 0.0 mm 396.0 W/m2 CLR
16:28 21.7 °C 6.4 °C 1014.8 hPa NNW 16.7 km/h 16.7 km/h 37 % 0.0 mm 399.0 W/m2 CLR
16:33 21.7 °C 6.7 °C 1014.8 hPa North 13.0 km/h 13.0 km/h 38 % 0.0 mm 468.0 W/m2 CLR
16:38 21.9 °C 6.1 °C 1014.8 hPa WNW 16.7 km/h 16.7 km/h 36 % 0.0 mm 475.0 W/m2 CLR
16:43 22.0 °C 5.8 °C 1014.8 hPa WNW 7.4 km/h 7.4 km/h 35 % 0.0 mm 441.0 W/m2 CLR
16:48 22.0 °C 7.0 °C 1014.8 hPa WNW 11.1 km/h 11.1 km/h 38 % 0.0 mm 410.0 W/m2 CLR
16:53 22.1 °C 6.3 °C 1014.8 hPa NW 9.3 km/h 9.3 km/h 36 % 0.0 mm 387.0 W/m2 CLR
16:58 22.0 °C 5.8 °C 1014.8 hPa Calm     35 % 0.0 mm 369.0 W/m2 CLR
17:03 21.9 °C 5.8 °C 1014.4 hPa NNW 12.9 km/h 12.9 km/h 35 % 0.0 mm 355.0 W/m2 CLR
17:08 21.8 °C 6.5 °C 1014.4 hPa NW 1.9 km/h   37 % 0.0 mm 338.0 W/m2 CLR
17:13 22.1 °C 6.7 °C 1014.4 hPa NNW 11.3 km/h 11.3 km/h 37 % 0.0 mm 322.0 W/m2 CLR
17:18 21.9 °C 6.6 °C 1014.4 hPa NW 14.5 km/h 14.5 km/h 37 % 0.0 mm 308.0 W/m2 CLR
17:23 21.7 °C 7.2 °C 1014.4 hPa North 5.6 km/h 5.6 km/h 39 % 0.0 mm 292.0 W/m2 CLR
17:28 21.7 °C 6.7 °C 1014.4 hPa North 9.3 km/h 9.3 km/h 38 % 0.0 mm 274.0 W/m2 CLR
17:33 21.6 °C 6.7 °C 1014.4 hPa NNW 5.6 km/h 5.6 km/h 38 % 0.0 mm 255.0 W/m2 CLR
17:38 21.8 °C 6.1 °C 1014.4 hPa North 6.4 km/h 6.4 km/h 36 % 0.0 mm 237.0 W/m2 CLR
17:43 21.7 °C 6.8 °C 1014.4 hPa NNW 9.3 km/h 9.3 km/h 38 % 0.0 mm 220.0 W/m2 CLR
17:48 21.7 °C 6.4 °C 1014.4 hPa North 6.4 km/h 6.4 km/h 37 % 0.0 mm 202.0 W/m2 CLR
17:53 21.5 °C 5.8 °C 1014.4 hPa NNW 11.1 km/h 11.1 km/h 36 % 0.0 mm 179.0 W/m2 CLR
17:58 21.4 °C 6.1 °C 1014.4 hPa NNW 5.6 km/h 5.6 km/h 37 % 0.0 mm 162.0 W/m2 CLR
18:03 21.4 °C 6.5 °C 1014.4 hPa NNW 7.4 km/h 7.4 km/h 38 % 0.0 mm 142.0 W/m2 CLR
18:08 21.3 °C 6.4 °C 1014.4 hPa NNW 8.0 km/h 8.0 km/h 38 % 0.0 mm 127.0 W/m2 CLR
18:13 21.1 °C 5.8 °C 1014.4 hPa NNW 5.6 km/h   37 % 0.0 mm 105.0 W/m2 CLR
18:18 21.1 °C 6.2 °C 1014.4 hPa Calm     38 % 0.0 mm 90.0 W/m2 CLR
18:23 21.1 °C 6.9 °C 1014.1 hPa Calm     40 % 0.0 mm 72.0 W/m2 FEW
18:28 21.0 °C 6.1 °C 1014.1 hPa Calm     38 % 0.0 mm 49.0 W/m2 SCT
18:33 20.9 °C 6.4 °C 1014.1 hPa Calm     39 % 0.0 mm 44.0 W/m2 BKN
18:38 20.8 °C 6.3 °C 1014.1 hPa Calm     39 % 0.0 mm 32.0 W/m2 BKN
18:43 20.6 °C 6.9 °C 1014.4 hPa Calm     41 % 0.0 mm 23.0 W/m2 BKN
18:48 20.4 °C 6.3 °C 1014.4 hPa Calm     40 % 0.0 mm 14.0 W/m2 BKN
18:53 20.1 °C 6.1 °C 1014.4 hPa Calm     40 % 0.0 mm 12.0 W/m2 BKN
18:58 19.7 °C 6.1 °C 1014.4 hPa Calm     41 % 0.0 mm 11.0 W/m2 BKN
19:03 19.3 °C 6.1 °C 1014.4 hPa Calm     42 % 0.0 mm 7.0 W/m2 BKN
19:08 19.1 °C 6.2 °C 1014.4 hPa Calm     43 % 0.0 mm 5.0 W/m2 OVC
19:13 18.8 °C 6.3 °C 1014.4 hPa Calm     44 % 0.0 mm 0.0 W/m2 OVC
19:18 18.6 °C 6.4 °C 1014.4 hPa Calm     45 % 0.0 mm 0.0 W/m2 OVC
19:23 18.4 °C 6.9 °C 1014.4 hPa Calm     47 % 0.0 mm 0.0 W/m2 CLR
19:28 18.0 °C 7.1 °C 1014.4 hPa Calm     49 % 0.0 mm 0.0 W/m2 CLR
19:34 17.6 °C 6.8 °C 1014.8 hPa Calm     49 % 0.0 mm 0.0 W/m2 CLR
19:39 17.3 °C 7.3 °C 1014.8 hPa Calm     52 % 0.0 mm 0.0 W/m2 CLR
19:44 16.8 °C 6.9 °C 1014.8 hPa Calm     52 % 0.0 mm 0.0 W/m2 CLR
19:49 16.4 °C 7.1 °C 1014.8 hPa Calm     54 % 0.0 mm 0.0 W/m2 CLR
19:54 16.2 °C 7.6 °C 1014.8 hPa Calm     57 % 0.0 mm 0.0 W/m2 CLR
19:59 15.6 °C 7.6 °C 1015.1 hPa Calm     59 % 0.0 mm 0.0 W/m2 CLR
20:04 15.1 °C 7.4 °C 1015.1 hPa Calm     60 % 0.0 mm 0.0 W/m2 CLR
20:09 14.8 °C 7.3 °C 1015.1 hPa Calm     61 % 0.0 mm 0.0 W/m2 CLR
20:14 14.4 °C 7.5 °C 1015.1 hPa Calm     63 % 0.0 mm 0.0 W/m2 CLR
20:19 14.1 °C 7.4 °C 1015.1 hPa Calm     64 % 0.0 mm 0.0 W/m2 CLR
20:24 13.7 °C 7.3 °C 1015.1 hPa Calm     65 % 0.0 mm 0.0 W/m2 CLR
20:29 13.4 °C 7.2 °C 1015.1 hPa Calm     66 % 0.0 mm 0.0 W/m2 CLR
20:34 13.2 °C 7.2 °C 1015.1 hPa Calm     67 % 0.0 mm 0.0 W/m2 CLR
20:39 13.1 °C 7.1 °C 1015.5 hPa Calm     67 % 0.0 mm 0.0 W/m2 CLR
20:44 12.9 °C 7.1 °C 1015.5 hPa Calm     68 % 0.0 mm 0.0 W/m2 CLR
20:49 12.8 °C 7.1 °C 1015.5 hPa Calm     68 % 0.0 mm 0.0 W/m2 CLR
20:54 12.7 °C 7.1 °C 1015.5 hPa Calm     69 % 0.0 mm 0.0 W/m2 CLR
20:59 12.6 °C 7.0 °C 1015.5 hPa Calm     69 % 0.0 mm 0.0 W/m2 CLR
21:04 12.3 °C 7.0 °C 1015.5 hPa Calm     70 % 0.0 mm 0.0 W/m2 CLR
21:09 12.1 °C 7.0 °C 1015.5 hPa Calm     71 % 0.0 mm 0.0 W/m2 CLR
21:14 11.9 °C 7.0 °C 1015.5 hPa Calm     72 % 0.0 mm 0.0 W/m2 CLR
21:19 11.7 °C 6.8 °C 1015.8 hPa Calm     72 % 0.0 mm 0.0 W/m2 CLR
21:24 11.6 °C 6.9 °C 1015.8 hPa Calm     73 % 0.0 mm 0.0 W/m2 CLR
21:29 11.5 °C 6.8 °C 1015.8 hPa Calm     73 % 0.0 mm 0.0 W/m2 CLR
21:34 11.3 °C 6.9 °C 1015.8 hPa Calm     74 % 0.0 mm 0.0 W/m2 CLR
21:39 11.2 °C 6.7 °C 1015.8 hPa Calm     74 % 0.0 mm 0.0 W/m2 CLR
21:44 11.0 °C 6.7 °C 1015.8 hPa Calm     75 % 0.0 mm 0.0 W/m2 CLR
21:49 10.9 °C 6.6 °C 1015.8 hPa Calm     75 % 0.0 mm 0.0 W/m2 CLR
21:54 10.7 °C 6.7 °C 1015.8 hPa Calm     76 % 0.0 mm 0.0 W/m2 CLR
21:59 10.6 °C 6.5 °C 1015.8 hPa Calm     76 % 0.0 mm 0.0 W/m2 CLR
22:04 10.4 °C 6.4 °C 1015.8 hPa Calm     76 % 0.0 mm 0.0 W/m2 CLR
22:09 10.3 °C 6.5 °C 1015.8 hPa Calm     77 % 0.0 mm 0.0 W/m2 CLR
22:14 10.2 °C 6.6 °C 1016.1 hPa Calm     78 % 0.0 mm 0.0 W/m2 CLR
22:19 10.1 °C 6.4 °C 1016.1 hPa Calm     78 % 0.0 mm 0.0 W/m2 CLR
22:24 10.1 °C 6.4 °C 1016.1 hPa Calm     78 % 0.0 mm 0.0 W/m2 CLR
22:30 10.1 °C 6.4 °C 1016.1 hPa Calm     78 % 0.0 mm 0.0 W/m2 CLR
22:35 10.0 °C 6.3 °C 1016.1 hPa Calm     78 % 0.0 mm 0.0 W/m2 CLR
22:39 9.9 °C 6.3 °C 1016.1 hPa Calm     78 % 0.0 mm 0.0 W/m2 CLR
22:45 9.8 °C 6.2 °C 1016.1 hPa Calm     78 % 0.0 mm 0.0 W/m2 CLR
22:50 9.7 °C 6.1 °C 1016.1 hPa Calm     78 % 0.0 mm 0.0 W/m2 CLR
22:55 9.6 °C 6.2 °C 1016.1 hPa Calm     79 % 0.0 mm 0.0 W/m2 CLR
23:00 9.5 °C 6.1 °C 1016.1 hPa Calm     79 % 0.0 mm 0.0 W/m2 CLR
23:05 9.3 °C 6.1 °C 1016.1 hPa Calm     80 % 0.0 mm 0.0 W/m2 CLR
23:10 9.2 °C 5.9 °C 1016.1 hPa Calm     80 % 0.0 mm 0.0 W/m2 CLR
23:15 9.1 °C 5.9 °C 1016.1 hPa Calm     81 % 0.0 mm 0.0 W/m2 CLR
23:20 9.0 °C 5.9 °C 1016.1 hPa Calm     81 % 0.0 mm 0.0 W/m2 CLR
23:25 8.9 °C 5.8 °C 1016.1 hPa Calm     81 % 0.0 mm 0.0 W/m2 CLR
23:30 8.8 °C 5.7 °C 1016.1 hPa Calm     81 % 0.0 mm 0.0 W/m2 CLR
23:35 8.9 °C 5.8 °C 1016.1 hPa Calm     81 % 0.0 mm 0.0 W/m2 CLR
23:40 8.9 °C 5.8 °C 1016.1 hPa Calm     81 % 0.0 mm 0.0 W/m2 CLR
23:45 8.9 °C 5.8 °C 1016.1 hPa Calm     81 % 0.0 mm 0.0 W/m2 CLR
23:50 8.9 °C 5.8 °C 1016.1 hPa Calm     81 % 0.0 mm 0.0 W/m2 CLR
23:55 8.9 °C 5.8 °C 1016.1 hPa Calm     81 % 0.0 mm 0.0 W/m2 CLR
Lo Temps de Massalio
Compliments of Weather Underground - 1.25 mb